createdAt,value
2023-03-04T00:00:47.258Z,100289.81
2023-03-04T00:03:16.508Z,100293.06
2023-03-04T00:05:44.933Z,100296.94
2023-03-04T00:08:13.246Z,100297.72
2023-03-04T00:10:41.560Z,100310.38
2023-03-04T00:13:09.897Z,100311.50
2023-03-04T00:15:38.260Z,100308.25
2023-03-04T00:18:06.665Z,100313.72
2023-03-04T00:20:35.005Z,100312.03
2023-03-04T00:23:03.319Z,100315.91
2023-03-04T00:25:31.751Z,100319.31
2023-03-04T00:28:00.266Z,100328.31
2023-03-04T00:30:28.885Z,100322.59
2023-03-04T00:32:57.203Z,100323.25
2023-03-04T00:35:25.660Z,100333.47
2023-03-04T00:37:54.073Z,100334.13
2023-03-04T00:40:22.410Z,100339.22
2023-03-04T00:42:50.817Z,100338.63
2023-03-04T00:45:19.279Z,100353.97
2023-03-04T00:47:47.614Z,100357.72
2023-03-04T00:50:16.135Z,100352.03
2023-03-04T00:52:44.539Z,100361.34
2023-03-04T00:55:12.955Z,100362.75
2023-03-04T00:57:41.306Z,100365.41
2023-03-04T01:00:10.401Z,100365.13
2023-03-04T01:02:38.809Z,100370.88
2023-03-04T01:05:07.990Z,100371.03
2023-03-04T01:07:36.312Z,100373.25
2023-03-04T01:10:05.015Z,100378.97
2023-03-04T01:12:33.374Z,100374.81
2023-03-04T01:15:01.825Z,100377.78
2023-03-04T01:17:30.129Z,100382.28
2023-03-04T01:19:58.495Z,100388.81
2023-03-04T01:22:26.827Z,100384.19
2023-03-04T01:24:55.416Z,100387.94
2023-03-04T01:27:23.803Z,100392.44
2023-03-04T01:29:52.108Z,100390.63
2023-03-04T01:32:20.497Z,100390.78
2023-03-04T01:34:48.880Z,100391.38
2023-03-04T01:37:17.280Z,100404.25
2023-03-04T01:39:45.594Z,100393.25
2023-03-04T01:42:23.322Z,100400.09
2023-03-04T01:44:53.575Z,100412.50
2023-03-04T01:47:25.574Z,100407.84
2023-03-04T01:49:57.224Z,100407.53
2023-03-04T01:52:26.845Z,100417.94
2023-03-04T01:54:55.485Z,100412.53
2023-03-04T01:57:26.521Z,100424.91
2023-03-04T02:00:25.341Z,100424.63
2023-03-04T02:03:03.975Z,100430.19
2023-03-04T02:05:32.592Z,100426.28
2023-03-04T02:08:02.591Z,100439.00
2023-03-04T02:10:31.171Z,100428.28
2023-03-04T02:13:01.090Z,100442.50
2023-03-04T02:15:31.077Z,100436.44
2023-03-04T02:17:59.500Z,100438.47
2023-03-04T02:20:52.802Z,100443.53
2023-03-04T02:23:21.159Z,100453.28
2023-03-04T02:26:14.330Z,100450.06
2023-03-04T02:28:43.142Z,100443.50
2023-03-04T02:31:36.644Z,100446.34
2023-03-04T02:34:08.426Z,100445.09
2023-03-04T02:36:38.412Z,100442.53
2023-03-04T02:39:16.337Z,100448.03
2023-03-04T02:41:44.902Z,100444.41
2023-03-04T02:44:22.592Z,100448.97
2023-03-04T02:46:51.540Z,100448.63
2023-03-04T02:49:21.441Z,100447.75
2023-03-04T02:51:54.092Z,100437.72
2023-03-04T02:54:24.975Z,100445.59
2023-03-04T02:56:55.705Z,100440.38
2023-03-04T02:59:24.746Z,100433.91
2023-03-04T03:01:53.240Z,100435.06
2023-03-04T03:04:22.959Z,100426.75
2023-03-04T03:06:51.335Z,100425.88
2023-03-04T03:09:21.207Z,100426.25
2023-03-04T03:11:49.765Z,100432.22
2023-03-04T03:14:18.135Z,100428.59
2023-03-04T03:16:46.479Z,100432.03
2023-03-04T03:19:14.794Z,100434.44
2023-03-04T03:21:43.123Z,100425.63
2023-03-04T03:24:11.418Z,100416.03
2023-03-04T03:26:40.919Z,100428.84
2023-03-04T03:29:09.226Z,100418.97
2023-03-04T03:31:37.616Z,100412.97
2023-03-04T03:34:05.905Z,100407.41
2023-03-04T03:36:34.292Z,100405.44
2023-03-04T03:39:02.690Z,100404.72
2023-03-04T03:41:30.984Z,100399.22
2023-03-04T03:43:59.395Z,100396.22
2023-03-04T03:46:28.282Z,100402.66
2023-03-04T03:48:56.584Z,100396.34
2023-03-04T03:51:25.036Z,100387.69
2023-03-04T03:53:53.415Z,100381.34
2023-03-04T03:56:21.749Z,100390.34
2023-03-04T03:58:50.063Z,100373.56
2023-03-04T04:01:18.437Z,100374.88
2023-03-04T04:03:46.815Z,100364.97
2023-03-04T04:06:15.156Z,100366.28
2023-03-04T04:08:43.668Z,100355.84
2023-03-04T04:11:13.327Z,100350.00
2023-03-04T04:13:41.638Z,100353.97
2023-03-04T04:16:11.514Z,100342.25
2023-03-04T04:18:39.900Z,100338.72
2023-03-04T04:21:08.219Z,100329.28
2023-03-04T04:23:36.623Z,100321.69
2023-03-04T04:26:05.187Z,100320.19
2023-03-04T04:28:33.790Z,100313.06
2023-03-04T04:31:02.142Z,100313.09
2023-03-04T04:33:30.436Z,100301.88
2023-03-04T04:35:58.831Z,100299.84
2023-03-04T04:38:27.162Z,100284.56
2023-03-04T04:40:57.677Z,100289.94
2023-03-04T04:43:26.753Z,100275.16
2023-03-04T04:45:55.090Z,100273.91
2023-03-04T04:48:23.546Z,100258.63
2023-03-04T04:50:57.228Z,100261.19
2023-03-04T04:53:25.662Z,100246.38
2023-03-04T04:55:54.020Z,100244.34
2023-03-04T04:58:22.373Z,100248.19
2023-03-04T05:00:50.823Z,100237.94
2023-03-04T05:03:19.859Z,100223.91
2023-03-04T05:05:50.092Z,100219.81
2023-03-04T05:08:18.403Z,100216.50
2023-03-04T05:10:46.694Z,100209.84
2023-03-04T05:13:15.022Z,100209.09
2023-03-04T05:15:43.358Z,100204.78
2023-03-04T05:18:11.778Z,100194.81
2023-03-04T05:20:40.127Z,100184.28
2023-03-04T05:23:08.440Z,100188.38
2023-03-04T05:25:36.938Z,100193.25
2023-03-04T05:28:06.099Z,100176.88
2023-03-04T05:30:34.400Z,100177.91
2023-03-04T05:33:02.705Z,100177.63
2023-03-04T05:35:31.064Z,100174.81
2023-03-04T05:37:59.352Z,100160.97
2023-03-04T05:40:27.705Z,100153.00
2023-03-04T05:42:55.998Z,100149.94
2023-03-04T05:45:25.215Z,100135.56
2023-03-04T05:47:53.920Z,100135.34
2023-03-04T05:50:23.392Z,100124.59
2023-03-04T05:52:51.789Z,100122.25
2023-03-04T05:55:20.248Z,100117.88
2023-03-04T05:57:48.732Z,100106.34
2023-03-04T06:00:18.060Z,100105.53
2023-03-04T06:02:46.825Z,100100.16
2023-03-04T06:05:16.746Z,100093.50
2023-03-04T06:07:45.969Z,100088.09
2023-03-04T06:10:17.557Z,100082.44
2023-03-04T06:12:46.352Z,100080.09
2023-03-04T06:15:15.416Z,100072.66
2023-03-04T06:17:44.321Z,100069.03
2023-03-04T06:20:13.602Z,100058.25
2023-03-04T06:22:42.133Z,100058.75
2023-03-04T06:25:11.130Z,100043.84
2023-03-04T06:27:39.457Z,100038.97
2023-03-04T06:30:10.206Z,100031.78
2023-03-04T06:32:38.599Z,100029.44
2023-03-04T06:35:07.644Z,100030.44
2023-03-04T06:37:35.928Z,100023.75
2023-03-04T06:40:04.693Z,100008.34
2023-03-04T06:42:32.995Z,100004.25
2023-03-04T06:45:01.425Z,99997.84
2023-03-04T06:47:30.076Z,99990.91
2023-03-04T06:49:58.438Z,99991.66
2023-03-04T06:52:26.859Z,99977.03
2023-03-04T06:54:55.275Z,99978.28
2023-03-04T06:57:23.584Z,99969.78
2023-03-04T06:59:51.872Z,99966.13
2023-03-04T07:02:20.187Z,99957.38
2023-03-04T07:04:48.742Z,99957.84
2023-03-04T07:07:17.084Z,99941.16
2023-03-04T07:09:45.429Z,99938.03
2023-03-04T07:12:13.772Z,99934.16
2023-03-04T07:14:42.073Z,99931.81
2023-03-04T07:17:10.462Z,99916.41
2023-03-04T07:19:39.052Z,99912.28
2023-03-04T07:22:07.352Z,99905.88
2023-03-04T07:24:35.675Z,99903.28
2023-03-04T07:27:04.106Z,99900.69
2023-03-04T07:29:32.474Z,99900.69
2023-03-04T07:32:00.894Z,99889.94
2023-03-04T07:34:29.276Z,99887.94
2023-03-04T07:36:57.555Z,99876.94
2023-03-04T07:39:25.930Z,99879.81
2023-03-04T07:41:54.242Z,99877.81
2023-03-04T07:44:22.780Z,99870.13
2023-03-04T07:46:51.123Z,99876.53
2023-03-04T07:49:19.404Z,99860.34
2023-03-04T07:51:47.728Z,99856.47
2023-03-04T07:54:16.127Z,99857.47
2023-03-04T07:56:44.747Z,99860.06
2023-03-04T07:59:13.095Z,99856.25
2023-03-04T08:01:41.814Z,99845.47
2023-03-04T08:04:10.915Z,99841.91
2023-03-04T08:06:42.251Z,99843.41
2023-03-04T08:09:12.406Z,99843.66
2023-03-04T08:11:40.737Z,99836.19
2023-03-04T08:14:10.220Z,99826.41
2023-03-04T08:16:39.125Z,99833.34
2023-03-04T08:19:09.428Z,99824.34
2023-03-04T08:21:37.929Z,99824.63
2023-03-04T08:24:10.152Z,99817.41
2023-03-04T08:26:44.862Z,99821.78
2023-03-04T08:29:17.045Z,99819.19
2023-03-04T08:31:48.961Z,99816.91
2023-03-04T08:34:18.852Z,99818.72
2023-03-04T08:36:47.404Z,99815.13
2023-03-04T08:39:17.747Z,99822.28
2023-03-04T08:41:47.353Z,99821.53
2023-03-04T08:44:16.570Z,99825.88
2023-03-04T08:46:45.335Z,99813.59
2023-03-04T08:49:15.342Z,99818.78
2023-03-04T08:51:45.568Z,99810.84
2023-03-04T08:54:13.937Z,99807.25
2023-03-04T08:56:42.739Z,99807.78
2023-03-04T08:59:11.086Z,99813.44
2023-03-04T09:01:39.543Z,99812.16
2023-03-04T09:04:08.003Z,99809.31
2023-03-04T09:06:36.321Z,99811.38
2023-03-04T09:09:05.369Z,99811.16
2023-03-04T09:11:33.838Z,99813.22
2023-03-04T09:14:02.123Z,99816.03
2023-03-04T09:16:30.432Z,99813.97
2023-03-04T09:18:58.739Z,99815.50
2023-03-04T09:21:27.047Z,99820.38
2023-03-04T09:23:55.371Z,99816.78
2023-03-04T09:26:29.479Z,99817.56
2023-03-04T09:29:02.575Z,99819.63
2023-03-04T09:31:31.440Z,99816.34
2023-03-04T09:34:01.203Z,99819.22
2023-03-04T09:36:29.584Z,99820.06
2023-03-04T09:39:02.537Z,99810.63
2023-03-04T09:41:43.044Z,99814.28
2023-03-04T09:44:38.193Z,99813.56
2023-03-04T09:47:18.321Z,99812.31
2023-03-04T09:49:55.252Z,99811.59
2023-03-04T09:52:56.259Z,99811.34
2023-03-04T09:55:38.562Z,99801.13
2023-03-04T09:58:25.146Z,99818.59
2023-03-04T10:01:05.374Z,99812.47
2023-03-04T10:03:55.163Z,99817.66
2023-03-04T10:06:24.463Z,99807.19
2023-03-04T10:09:14.090Z,99822.06
2023-03-04T10:11:46.620Z,99816.50
2023-03-04T10:14:39.799Z,99823.47
2023-03-04T10:17:14.123Z,99820.69
2023-03-04T10:19:54.362Z,99821.25
2023-03-04T10:22:33.126Z,99818.97
2023-03-04T10:25:47.625Z,99830.06
2023-03-04T10:28:22.476Z,99833.44
2023-03-04T10:31:27.566Z,99827.59
2023-03-04T10:33:55.898Z,99833.25
2023-03-04T10:37:01.936Z,99843.78
2023-03-04T10:39:51.587Z,99847.16
2023-03-04T10:42:20.708Z,99846.44
2023-03-04T10:45:00.616Z,99850.78
2023-03-04T10:47:36.544Z,99842.59
2023-03-04T10:50:07.419Z,99858.75
2023-03-04T10:52:50.857Z,99845.47
2023-03-04T10:55:23.468Z,99855.97
2023-03-04T10:57:57.904Z,99866.50
2023-03-04T11:00:35.582Z,99860.63
2023-03-04T11:03:29.786Z,99862.47
2023-03-04T11:06:26.855Z,99861.69
2023-03-04T11:09:00.563Z,99873.22
2023-03-04T11:11:46.854Z,99868.84
2023-03-04T11:14:29.542Z,99878.59
2023-03-04T11:17:04.149Z,99876.28
2023-03-04T11:19:44.336Z,99886.00
2023-03-04T11:22:18.334Z,99888.81
2023-03-04T11:25:10.739Z,99882.94
2023-03-04T11:27:49.135Z,99893.91
2023-03-04T11:30:42.684Z,99893.16
2023-03-04T11:33:15.228Z,99886.75
2023-03-04T11:35:53.172Z,99901.56
2023-03-04T11:38:26.132Z,99902.31
2023-03-04T11:41:00.104Z,99904.56
2023-03-04T11:43:50.996Z,99904.56
2023-03-04T11:46:36.821Z,99903.28
2023-03-04T11:49:11.107Z,99910.69
2023-03-04T11:51:55.212Z,99912.97
2023-03-04T11:54:23.471Z,99912.47
2023-03-04T11:56:54.254Z,99917.56
2023-03-04T11:59:36.583Z,99924.94
2023-03-04T12:02:16.528Z,99928.50
2023-03-04T12:05:13.274Z,99935.13
2023-03-04T12:07:53.460Z,99940.72
2023-03-04T12:10:47.990Z,99944.53
2023-03-04T12:13:40.583Z,99945.28
2023-03-04T12:16:18.241Z,99953.16
2023-03-04T12:18:55.344Z,99952.13
2023-03-04T12:22:04.437Z,99952.06
2023-03-04T12:25:04.704Z,99967.13
2023-03-04T12:27:38.846Z,99968.88
2023-03-04T12:30:25.707Z,99973.97
2023-03-04T12:32:59.391Z,99979.31
2023-03-04T12:36:06.372Z,99987.47
2023-03-04T12:39:11.058Z,99990.50
2023-03-04T12:42:13.475Z,100001.94
2023-03-04T12:44:55.906Z,100007.03
2023-03-04T12:47:49.956Z,100006.00
2023-03-04T12:50:33.260Z,100014.13
2023-03-04T12:53:19.934Z,100020.47
2023-03-04T12:55:49.021Z,100020.22
2023-03-04T12:58:25.069Z,100026.31
2023-03-04T13:01:05.228Z,100026.56
2023-03-04T13:03:48.978Z,100031.91
2023-03-04T13:06:54.670Z,100042.03
2023-03-04T13:09:30.466Z,100047.13
2023-03-04T13:12:19.007Z,100049.66
2023-03-04T13:15:14.811Z,100057.78
2023-03-04T13:17:58.173Z,100061.59
2023-03-04T13:20:32.636Z,100065.38
2023-03-04T13:23:15.843Z,100066.38
2023-03-04T13:26:04.399Z,100075.00
2023-03-04T13:28:36.070Z,100080.81
2023-03-04T13:31:16.146Z,100082.53
2023-03-04T13:33:53.542Z,100092.72
2023-03-04T13:36:34.545Z,100105.69
2023-03-04T13:39:27.498Z,100105.91
2023-03-04T13:41:57.910Z,100114.81
2023-03-04T13:44:59.631Z,100105.84
2023-03-04T13:47:45.280Z,100119.59
2023-03-04T13:50:37.647Z,100128.50
2023-03-04T13:53:43.548Z,100130.75
2023-03-04T13:56:20.028Z,100131.25
2023-03-04T13:58:52.132Z,100134.25
2023-03-04T14:01:28.178Z,100131.63
2023-03-04T14:03:57.077Z,100145.88
2023-03-04T14:06:31.569Z,100144.81
2023-03-04T14:09:00.036Z,100147.34
2023-03-04T14:11:34.164Z,100157.50
2023-03-04T14:14:07.603Z,100154.13
2023-03-04T14:16:42.148Z,100157.44
2023-03-04T14:19:18.281Z,100150.78
2023-03-04T14:21:48.364Z,100163.72
2023-03-04T14:24:20.403Z,100169.53
2023-03-04T14:26:49.657Z,100172.03
2023-03-04T14:29:30.428Z,100170.97
2023-03-04T14:32:01.092Z,100167.13
2023-03-04T14:34:37.354Z,100163.75
2023-03-04T14:37:20.881Z,100173.88
2023-03-04T14:39:54.250Z,100169.28
2023-03-04T14:42:26.983Z,100167.44
2023-03-04T14:44:59.810Z,100174.78
2023-03-04T14:47:28.034Z,100174.50
2023-03-04T14:49:56.483Z,100175.47
2023-03-04T14:52:43.553Z,100181.53
2023-03-04T14:55:29.353Z,100187.34
2023-03-04T14:58:10.181Z,100182.72
2023-03-04T15:00:44.074Z,100183.69
2023-03-04T15:03:21.959Z,100185.44
2023-03-04T15:05:50.818Z,100191.53
2023-03-04T15:08:38.567Z,100187.38
2023-03-04T15:11:08.886Z,100188.34
2023-03-04T15:13:50.672Z,100184.00
2023-03-04T15:16:24.127Z,100200.97
2023-03-04T15:19:25.564Z,100200.69
2023-03-04T15:22:05.957Z,100196.84
2023-03-04T15:24:34.341Z,100195.50
2023-03-04T15:27:05.122Z,100204.38
2023-03-04T15:29:33.514Z,100198.97
2023-03-04T15:32:02.193Z,100209.09
2023-03-04T15:34:30.612Z,100198.88
2023-03-04T15:37:01.318Z,100202.66
2023-03-04T15:39:29.788Z,100203.13
2023-03-04T15:41:58.125Z,100197.25
2023-03-04T15:44:26.428Z,100205.28
2023-03-04T15:46:54.739Z,100194.59
2023-03-04T15:49:23.086Z,100195.56
2023-03-04T15:51:51.427Z,100194.50
2023-03-04T15:54:19.824Z,100196.22
2023-03-04T15:56:48.196Z,100195.94
2023-03-04T15:59:18.273Z,100196.91
2023-03-04T16:01:47.482Z,100195.84
2023-03-04T16:04:18.024Z,100196.03
2023-03-04T16:06:48.568Z,100190.63
2023-03-04T16:09:20.625Z,100194.38
2023-03-04T16:11:49.054Z,100195.81
2023-03-04T16:14:18.240Z,100193.97
2023-03-04T16:16:47.922Z,100193.69
2023-03-04T16:19:16.302Z,100195.41
2023-03-04T16:21:44.710Z,100184.44
2023-03-04T16:24:20.861Z,100193.28
2023-03-04T16:26:49.854Z,100193.47
2023-03-04T16:29:18.346Z,100188.84
2023-03-04T16:31:46.645Z,100195.38
2023-03-04T16:34:15.099Z,100188.72
2023-03-04T16:36:43.572Z,100188.41
2023-03-04T16:39:21.395Z,100192.19
2023-03-04T16:41:50.571Z,100193.13
2023-03-04T16:44:19.163Z,100188.78
2023-03-04T16:46:47.538Z,100188.22
2023-03-04T16:49:15.894Z,100188.69
2023-03-04T16:51:49.213Z,100182.78
2023-03-04T16:54:25.097Z,100189.31
2023-03-04T16:56:53.392Z,100183.13
2023-03-04T16:59:21.888Z,100177.22
2023-03-04T17:01:50.627Z,100175.09
2023-03-04T17:04:18.981Z,100176.06
2023-03-04T17:06:47.518Z,100176.25
2023-03-04T17:09:15.840Z,100172.09
2023-03-04T17:11:44.777Z,100171.78
2023-03-04T17:14:13.101Z,100166.38
2023-03-04T17:16:41.420Z,100164.50
2023-03-04T17:19:09.880Z,100164.69
2023-03-04T17:21:38.180Z,100168.91
2023-03-04T17:24:06.879Z,100165.53
2023-03-04T17:26:35.607Z,100160.59
2023-03-04T17:29:03.968Z,100158.75
2023-03-04T17:31:32.384Z,100162.50
2023-03-04T17:34:00.777Z,100157.09
2023-03-04T17:36:29.416Z,100158.00
2023-03-04T17:38:58.056Z,100157.41
2023-03-04T17:41:27.628Z,100148.44
2023-03-04T17:43:57.834Z,100149.06
2023-03-04T17:46:28.547Z,100143.38
2023-03-04T17:49:00.111Z,100145.22
2023-03-04T17:51:37.418Z,100142.31
2023-03-04T17:54:08.689Z,100140.16
2023-03-04T17:56:40.215Z,100138.03
2023-03-04T17:59:12.626Z,100139.44
2023-03-04T18:01:41.063Z,100140.84
2023-03-04T18:04:09.892Z,100141.31
2023-03-04T18:06:38.327Z,100137.91
2023-03-04T18:09:07.313Z,100143.94
2023-03-04T18:11:38.584Z,100144.91
2023-03-04T18:14:07.092Z,100135.94
2023-03-04T18:16:35.958Z,100141.66
2023-03-04T18:19:05.615Z,100127.59
2023-03-04T18:21:34.428Z,100138.44
2023-03-04T18:24:02.919Z,100139.38
2023-03-04T18:26:31.710Z,100138.75
2023-03-04T18:29:00.087Z,100135.34
2023-03-04T18:31:33.117Z,100140.31
2023-03-04T18:34:05.251Z,100139.69
2023-03-04T18:36:34.292Z,100132.25
2023-03-04T18:39:05.103Z,100129.63
2023-03-04T18:41:33.438Z,100125.78
2023-03-04T18:44:01.806Z,100133.81
2023-03-04T18:46:42.120Z,100112.91
2023-03-04T18:49:11.668Z,100115.38
2023-03-04T18:51:40.246Z,100123.13
2023-03-04T18:54:08.682Z,100118.50
2023-03-04T18:56:46.131Z,100115.88
2023-03-04T18:59:24.050Z,100117.56
2023-03-04T19:01:55.457Z,100111.69
2023-03-04T19:04:28.177Z,100109.38
2023-03-04T19:06:56.879Z,100104.75
2023-03-04T19:09:25.174Z,100098.06
2023-03-04T19:11:53.547Z,100097.75
2023-03-04T19:14:21.855Z,100093.44
2023-03-04T19:16:50.246Z,100088.78
2023-03-04T19:19:18.580Z,100092.03
2023-03-04T19:21:47.064Z,100088.16
2023-03-04T19:24:15.386Z,100085.56
2023-03-04T19:26:43.927Z,100084.94
2023-03-04T19:29:12.346Z,100086.63
2023-03-04T19:31:41.872Z,100082.00
2023-03-04T19:34:10.883Z,100083.25
2023-03-04T19:36:39.673Z,100085.38
2023-03-04T19:39:09.728Z,100092.19
2023-03-04T19:41:38.321Z,100081.50
2023-03-04T19:44:06.645Z,100078.56
2023-03-04T19:46:35.575Z,100073.00
2023-03-04T19:49:05.588Z,100082.47
2023-03-04T19:51:33.913Z,100072.56
2023-03-04T19:54:02.833Z,100077.66
2023-03-04T19:56:31.533Z,100074.13
2023-03-04T19:59:00.135Z,100082.78
2023-03-04T20:01:34.876Z,100071.31
2023-03-04T20:04:10.133Z,100074.88
2023-03-04T20:06:44.653Z,100069.31
2023-03-04T20:09:14.953Z,100068.06
2023-03-04T20:11:56.629Z,100068.84
2023-03-04T20:14:26.396Z,100067.31
2023-03-04T20:16:54.714Z,100065.28
2023-03-04T20:19:22.998Z,100069.63
2023-03-04T20:21:51.283Z,100068.84
2023-03-04T20:24:20.957Z,100072.41
2023-03-04T20:26:49.251Z,100068.06
2023-03-04T20:29:17.988Z,100072.88
2023-03-04T20:31:47.388Z,100072.09
2023-03-04T20:34:15.942Z,100070.56
2023-03-04T20:36:44.323Z,100076.91
2023-03-04T20:39:27.690Z,100073.34
2023-03-04T20:42:00.420Z,100076.56
2023-03-04T20:44:28.927Z,100075.47
2023-03-04T20:46:57.594Z,100068.06
2023-03-04T20:49:28.550Z,100072.22
2023-03-04T20:52:03.709Z,100070.81
2023-03-04T20:54:32.304Z,100067.41
2023-03-04T20:57:00.623Z,100064.94
2023-03-04T20:59:29.574Z,100067.53
2023-03-04T21:01:58.041Z,100066.13
2023-03-04T21:04:26.579Z,100064.28
2023-03-04T21:06:55.011Z,100066.44
2023-03-04T21:09:24.709Z,100073.25
2023-03-04T21:11:53.132Z,100066.59
2023-03-04T21:14:31.739Z,100064.75
2023-03-04T21:17:02.712Z,100069.53
2023-03-04T21:19:37.385Z,100073.09
2023-03-04T21:22:05.960Z,100063.19
2023-03-04T21:24:37.135Z,100072.78
2023-03-04T21:27:07.180Z,100074.78
2023-03-04T21:29:35.641Z,100078.81
2023-03-04T21:32:21.103Z,100081.13
2023-03-04T21:34:52.920Z,100082.66
2023-03-04T21:37:25.476Z,100085.00
2023-03-04T21:39:54.169Z,100085.00
2023-03-04T21:42:23.100Z,100081.44
2023-03-04T21:44:51.957Z,100084.22
2023-03-04T21:47:23.940Z,100077.88
2023-03-04T21:49:52.493Z,100089.00
2023-03-04T21:52:23.417Z,100089.78
2023-03-04T21:54:51.910Z,100093.78
2023-03-04T21:57:20.794Z,100093.78
2023-03-04T21:59:50.045Z,100098.91
2023-03-04T22:02:21.184Z,100105.69
2023-03-04T22:04:49.904Z,100102.13
2023-03-04T22:07:18.406Z,100105.69
2023-03-04T22:09:46.786Z,100107.69
2023-03-04T22:12:17.006Z,100113.28
2023-03-04T22:14:46.738Z,100119.28
2023-03-04T22:17:15.308Z,100122.84
2023-03-04T22:19:43.861Z,100119.28
2023-03-04T22:22:12.321Z,100119.75
2023-03-04T22:24:40.685Z,100124.97
2023-03-04T22:27:08.982Z,100123.88
2023-03-04T22:29:37.311Z,100128.34
2023-03-04T22:32:06.024Z,100138.41
2023-03-04T22:34:34.352Z,100138.53
2023-03-04T22:37:02.694Z,100146.25
2023-03-04T22:39:30.986Z,100142.84
2023-03-04T22:42:00.258Z,100140.97
2023-03-04T22:44:28.575Z,100157.81
2023-03-04T22:46:56.933Z,100151.56
2023-03-04T22:49:25.270Z,100153.25
2023-03-04T22:51:53.613Z,100158.97
2023-03-04T22:54:21.954Z,100156.31
2023-03-04T22:56:50.339Z,100162.78
2023-03-04T22:59:18.629Z,100161.25
2023-03-04T23:01:47.046Z,100163.69
2023-03-04T23:04:15.371Z,100170.47
2023-03-04T23:06:43.691Z,100166.16
2023-03-04T23:09:11.985Z,100172.16
2023-03-04T23:11:40.591Z,100175.38
2023-03-04T23:14:09.818Z,100175.84
2023-03-04T23:16:43.286Z,100181.84
2023-03-04T23:19:17.455Z,100182.28
2023-03-04T23:21:46.286Z,100182.75
2023-03-04T23:24:15.341Z,100179.19
2023-03-04T23:26:45.077Z,100188.75
2023-03-04T23:29:16.149Z,100191.53
2023-03-04T23:31:45.425Z,100186.44
2023-03-04T23:34:14.132Z,100194.00
2023-03-04T23:36:43.065Z,100195.22
2023-03-04T23:39:13.466Z,100201.22
2023-03-04T23:41:41.890Z,100199.69
2023-03-04T23:44:12.917Z,100212.81
2023-03-04T23:46:41.890Z,100216.81
2023-03-04T23:49:14.236Z,100213.56
2023-03-04T23:51:45.205Z,100215.44
2023-03-04T23:54:15.365Z,100227.66
2023-03-04T23:56:43.931Z,100227.22
2023-03-04T23:59:13.262Z,100230.66
